Time;durP1;ratioP1;P1;durP2;ratioP2;P2;SDS_P1;SDS_P2;PMS_P1;PMS_P2;Temp;Humidity;BMP_temperature;BMP_pressure;BME280_temperature;BME280_humidity;BME280_pressure;Samples;Min_cycle;Max_cycle;Signal;HPM_P1;HPM_P2
2022/12/08 00:01:25;;;;;;;20.30;12.48;;;;;;;6.99;100.00;98155.38;5073569;28;20177;-62
2022/12/08 00:03:51;;;;;;;20.02;12.02;;;;;;;7.08;100.00;98190.84;5073805;28;20279;-62
2022/12/08 00:09:20;;;;;;;19.85;11.57;;;;;;;6.96;100.00;98133.25;5073583;28;20567;-63
2022/12/08 00:11:46;;;;;;;17.58;10.98;;;;;;;7.25;100.00;98199.25;5073931;28;20198;-62
2022/12/08 00:14:11;;;;;;;15.80;10.52;;;;;;;6.90;100.00;98141.31;5073949;28;20185;-63
2022/12/08 00:16:37;;;;;;;20.10;11.48;;;;;;;7.25;100.00;98196.66;5073680;28;20173;-62
2022/12/08 00:19:02;;;;;;;19.35;10.95;;;;;;;7.19;100.00;98198.75;5073171;28;20192;-62
2022/12/08 00:21:28;;;;;;;18.35;10.60;;;;;;;7.07;100.00;98190.03;5073363;28;20585;-63
2022/12/08 00:23:55;;;;;;;18.10;11.52;;;;;;;7.15;100.00;98216.13;5074007;28;20304;-62
2022/12/08 00:26:20;;;;;;;17.60;10.73;;;;;;;6.85;100.00;98156.16;5073500;28;20181;-62
2022/12/08 00:28:46;;;;;;;18.30;11.05;;;;;;;7.04;100.00;98181.66;5073982;28;20591;-62
2022/12/08 00:31:12;;;;;;;16.23;10.80;;;;;;;6.92;100.00;98162.63;5073136;28;20177;-62
2022/12/08 00:33:45;;;;;;;14.45;9.68;;;;;;;7.21;100.00;98207.22;5073649;28;20181;-62
2022/12/08 00:36:13;;;;;;;16.15;9.55;;;;;;;6.94;100.00;98158.19;5073066;28;20628;-63
2022/12/08 00:38:40;;;;;;;13.55;9.57;;;;;;;7.18;100.00;98197.13;5073016;28;20639;-63
2022/12/08 00:41:14;;;;;;;15.18;9.75;;;;;;;7.24;100.00;98214.75;5072910;28;20246;-63
2022/12/08 00:43:40;;;;;;;13.25;9.10;;;;;;;7.18;100.00;98210.78;5073507;28;20212;-63
2022/12/08 00:46:05;;;;;;;18.67;10.00;;;;;;;6.84;100.00;98164.81;5072886;28;20212;-63
2022/12/08 00:48:31;;;;;;;15.63;10.30;;;;;;;6.71;100.00;98158.69;5072878;28;20629;-63
2022/12/08 00:50:56;;;;;;;14.82;8.85;;;;;;;7.18;100.00;98205.63;5072809;28;20672;-63
2022/12/08 00:53:22;;;;;;;12.13;8.45;;;;;;;7.27;100.00;98205.13;5072778;28;20185;-63
2022/12/08 00:55:47;;;;;;;12.80;7.95;;;;;;;7.07;100.00;98159.16;5072700;28;20697;-63
2022/12/08 00:58:13;;;;;;;15.38;8.60;;;;;;;7.08;100.00;98194.25;5072383;28;20176;-63
2022/12/08 01:00:42;;;;;;;10.38;7.63;;;;;;;6.55;100.00;98142.50;5073484;28;20536;-63
2022/12/08 01:03:11;;;;;;;12.15;8.63;;;;;;;6.15;100.00;98135.38;5072576;28;20642;-63
2022/12/08 01:05:37;;;;;;;13.45;8.90;;;;;;;6.08;100.00;98136.63;5072286;28;20664;-63
2022/12/08 01:08:07;;;;;;;10.75;7.55;;;;;;;5.64;100.00;98099.66;5073081;28;20177;-63
2022/12/08 01:10:36;;;;;;;12.38;8.57;;;;;;;5.80;100.00;98148.44;5072928;28;20192;-63
2022/12/08 01:13:02;;;;;;;11.40;8.05;;;;;;;6.17;100.00;98187.47;5073159;28;20173;-63
2022/12/08 01:15:27;;;;;;;17.45;9.57;;;;;;;5.94;100.00;98140.84;5072447;28;20180;-63
2022/12/08 01:17:53;;;;;;;13.70;7.97;;;;;;;6.06;100.00;98150.47;5073272;28;20173;-63
2022/12/08 01:20:18;;;;;;;12.95;8.25;;;;;;;6.31;100.00;98194.44;5072483;28;20177;-63
2022/12/08 01:22:43;;;;;;;12.82;8.43;;;;;;;5.99;100.00;98147.38;5072426;28;20200;-63
2022/12/08 01:25:09;;;;;;;10.70;8.25;;;;;;;6.29;100.00;98165.44;5072295;28;20201;-63
2022/12/08 01:27:34;;;;;;;15.23;8.02;;;;;;;6.21;100.00;98181.25;5072334;28;20173;-63
2022/12/08 01:30:00;;;;;;;11.18;7.65;;;;;;;6.06;100.00;98194.94;5072676;28;20189;-63
2022/12/08 01:32:25;;;;;;;9.20;6.32;;;;;;;5.59;100.00;98124.72;5072389;28;20184;-63
2022/12/08 01:34:51;;;;;;;9.55;6.45;;;;;;;5.76;100.00;98165.72;5072275;28;20665;-62
2022/12/08 01:37:16;;;;;;;11.20;7.57;;;;;;;5.98;100.00;98193.69;5072194;28;20177;-62
2022/12/08 01:39:42;;;;;;;9.10;6.18;;;;;;;5.92;100.00;98187.16;5072579;28;20181;-62
2022/12/08 01:42:22;;;;;;;10.30;6.72;;;;;;;5.97;100.00;98213.41;5072209;28;20184;-62
2022/12/08 01:45:02;;;;;;;8.25;6.72;;;;;;;5.52;100.00;98143.09;5072153;28;20273;-62
2022/12/08 01:47:39;;;;;;;10.98;7.70;;;;;;;5.54;100.00;98151.56;5072475;28;20558;-62
2022/12/08 01:50:09;;;;;;;10.82;7.47;;;;;;;5.60;100.00;98141.78;5072160;28;20208;-62
2022/12/08 01:52:46;;;;;;;10.82;7.18;;;;;;;5.68;100.00;98149.06;5072404;28;20173;-62
2022/12/08 01:55:42;;;;;;;11.65;7.13;;;;;;;5.96;100.00;98206.63;5072671;28;20183;-62
2022/12/08 01:58:15;;;;;;;11.88;8.13;;;;;;;5.97;100.00;98198.00;5029933;28;20249;-62
2022/12/08 02:00:41;;;;;;;16.33;8.70;;;;;;;6.01;100.00;98190.97;5030384;28;20205;-62
2022/12/08 02:03:13;;;;;;;15.63;9.25;;;;;;;5.84;100.00;98150.75;5029890;28;20665;-62
2022/12/08 02:05:39;;;;;;;16.15;9.07;;;;;;;5.82;100.00;98142.31;5029778;28;20193;-62
2022/12/08 02:08:08;;;;;;;11.85;7.88;;;;;;;6.10;100.00;98193.84;5030405;28;20252;-63
2022/12/08 02:10:37;;;;;;;15.82;8.75;;;;;;;5.91;100.00;98144.41;5033463;28;20194;-63
2022/12/08 02:13:05;;;;;;;15.05;9.05;;;;;;;5.67;100.00;98140.56;5034137;28;20222;-63
2022/12/08 02:16:07;;;;;;;11.77;7.53;;;;;;;5.99;100.00;98191.03;4994176;28;20638;-63
2022/12/08 02:19:00;;;;;;;10.68;7.30;;;;;;;5.96;100.00;98201.50;4994540;28;20554;-63
2022/12/08 02:21:36;;;;;;;23.42;10.30;;;;;;;5.53;100.00;98143.03;4952701;29;20216;-63
2022/12/08 02:24:13;;;;;;;14.55;8.45;;;;;;;5.74;100.00;98200.94;4955410;29;20300;-63
2022/12/08 02:27:11;;;;;;;11.27;7.65;;;;;;;5.19;100.00;98135.41;4955411;29;20287;-64
2022/12/08 02:30:21;;;;;;;11.05;7.15;;;;;;;5.53;100.00;98196.91;4955757;29;20198;-63
2022/12/08 02:33:37;;;;;;;9.50;6.75;;;;;;;5.46;100.00;98187.88;4952308;29;20197;-63
2022/12/08 02:36:12;;;;;;;8.02;6.10;;;;;;;5.48;100.00;98198.06;4935898;29;20636;-63
2022/12/08 02:39:07;;;;;;;11.93;7.25;;;;;;;5.39;100.00;98189.09;4936347;29;20194;-63
2022/12/08 02:42:02;;;;;;;8.68;5.75;;;;;;;5.34;100.00;98180.81;4935893;29;20252;-63
2022/12/08 02:44:38;;;;;;;10.05;6.45;;;;;;;5.43;100.00;98198.28;4936470;29;20205;-63
2022/12/08 02:47:10;;;;;;;11.48;6.38;;;;;;;5.42;100.00;98196.63;4977727;28;20183;-63
2022/12/08 02:49:36;;;;;;;11.25;7.60;;;;;;;5.24;100.00;98178.81;4993550;28;20188;-63
2022/12/08 02:52:12;;;;;;;13.27;8.45;;;;;;;5.43;100.00;98194.91;5002246;28;20190;-63
2022/12/08 02:54:47;;;;;;;11.05;7.85;;;;;;;5.35;100.00;98197.00;5033364;28;20290;-63
2022/12/08 02:57:45;;;;;;;11.07;7.55;;;;;;;5.28;100.00;98201.63;5032791;28;20201;-63
2022/12/08 03:00:17;;;;;;;9.75;6.45;;;;;;;5.14;100.00;98178.41;5033270;28;20174;-63
2022/12/08 03:02:57;;;;;;;10.30;6.88;;;;;;;5.21;100.00;98174.66;5032608;28;20198;-63
2022/12/08 03:05:40;;;;;;;7.63;5.82;;;;;;;5.61;100.00;98205.06;5032564;28;20201;-63
2022/12/08 03:08:40;;;;;;;10.57;7.18;;;;;;;5.64;100.00;98215.13;5033174;28;20549;-63
2022/12/08 03:11:15;;;;;;;11.10;7.10;;;;;;;5.71;100.00;98210.53;5074809;28;20243;-63
2022/12/08 03:13:45;;;;;;;14.90;8.20;;;;;;;5.35;100.00;98158.53;5075515;28;20242;-64
2022/12/08 03:16:14;;;;;;;11.00;8.45;;;;;;;5.67;100.00;98204.72;5074662;28;20173;-64
2022/12/08 03:18:47;;;;;;;17.42;9.15;;;;;;;5.29;100.00;98146.88;5074660;28;20173;-63
2022/12/08 03:21:15;;;;;;;18.58;9.48;;;;;;;5.13;100.00;98114.41;5073604;28;20231;-64
2022/12/08 03:23:45;;;;;;;15.75;9.60;;;;;;;5.76;100.00;98199.09;5074447;28;20204;-64
2022/12/08 03:26:17;;;;;;;14.13;9.00;;;;;;;5.41;100.00;98146.22;5074058;28;20564;-63
2022/12/08 03:28:43;;;;;;;17.13;10.13;;;;;;;5.72;100.00;98182.19;5074479;28;20677;-63
2022/12/08 03:31:11;;;;;;;14.30;9.68;;;;;;;5.55;100.00;98168.59;5074078;28;20272;-64
2022/12/08 03:33:42;;;;;;;8.18;6.25;;;;;;;5.21;100.00;98112.25;5074345;28;20184;-63
2022/12/08 03:36:11;;;;;;;7.95;5.40;;;;;;;5.63;100.00;98200.66;5074578;28;20237;-63
2022/12/08 03:38:43;;;;;;;7.35;5.03;;;;;;;5.14;100.00;98131.44;5074223;28;20639;-63
2022/12/08 03:41:18;;;;;;;7.28;5.75;;;;;;;4.85;100.00;98098.78;5074142;28;20181;-63
2022/12/08 03:43:51;;;;;;;7.35;5.63;;;;;;;5.07;100.00;98135.22;5074663;28;20573;-63
2022/12/08 03:46:19;;;;;;;12.93;7.75;;;;;;;5.37;100.00;98193.47;5074388;28;20302;-63
2022/12/08 03:48:44;;;;;;;11.00;6.63;;;;;;;5.58;100.00;98197.50;5073998;28;20657;-63
2022/12/08 03:51:10;;;;;;;13.18;8.00;;;;;;;5.19;100.00;98099.50;5074000;28;20177;-63
2022/12/08 03:53:36;;;;;;;10.70;7.60;;;;;;;5.80;100.00;98198.06;5073920;28;20272;-64
2022/12/08 03:56:14;;;;;;;15.23;8.68;;;;;;;5.51;100.00;98177.34;5074155;28;20254;-63
2022/12/08 03:58:40;;;;;;;16.90;8.52;;;;;;;5.48;100.00;98150.13;5073868;28;20207;-64
2022/12/08 04:01:05;;;;;;;13.18;8.32;;;;;;;5.54;100.00;98169.50;5074314;28;20265;-63
2022/12/08 04:03:30;;;;;;;15.25;9.73;;;;;;;5.79;100.00;98201.53;5073423;28;20577;-64
2022/12/08 04:05:58;;;;;;;17.65;10.23;;;;;;;5.65;100.00;98180.88;5073688;28;20177;-64
2022/12/08 04:08:24;;;;;;;15.40;9.50;;;;;;;5.60;100.00;98164.06;5073620;28;20173;-64
2022/12/08 04:10:49;;;;;;;17.17;10.93;;;;;;;5.90;100.00;98206.91;5073547;28;20203;-63
2022/12/08 04:13:14;;;;;;;20.27;11.45;;;;;;;5.56;100.00;98139.47;5073286;28;20538;-64
2022/12/08 04:15:44;;;;;;;15.20;10.10;;;;;;;5.90;100.00;98186.38;5073480;28;20185;-64
2022/12/08 04:18:09;;;;;;;17.98;9.93;;;;;;;6.06;100.00;98201.81;5073485;28;20666;-64
2022/12/08 04:20:38;;;;;;;20.15;11.10;;;;;;;5.79;100.00;98157.88;5073092;28;20177;-64
2022/12/08 04:23:04;;;;;;;16.55;10.23;;;;;;;5.94;100.00;98190.44;5073222;28;20661;-62
2022/12/08 04:25:29;;;;;;;18.88;11.02;;;;;;;5.61;100.00;98117.81;5073567;28;20180;-61
2022/12/08 04:27:55;;;;;;;20.88;12.10;;;;;;;5.88;100.00;98149.69;5073764;28;20181;-61
2022/12/08 04:30:20;;;;;;;19.25;10.80;;;;;;;6.35;100.00;98209.59;5073173;28;20652;-61
2022/12/08 04:32:46;;;;;;;21.20;11.50;;;;;;;6.45;100.00;98220.19;5072959;28;20177;-61
2022/12/08 04:35:11;;;;;;;21.35;11.98;;;;;;;6.30;100.00;98170.47;5073127;28;20184;-62
2022/12/08 04:37:36;;;;;;;20.20;11.77;;;;;;;6.55;100.00;98211.91;5073373;28;20172;-62
2022/12/08 04:40:02;;;;;;;16.08;7.40;;;;;;;6.51;100.00;98205.25;5073018;28;20706;-62
2022/12/08 04:42:30;;;;;;;12.10;7.20;;;;;;;6.59;100.00;98213.38;5072948;28;20177;-64
2022/12/08 04:44:56;;;;;;;10.02;6.28;;;;;;;6.30;100.00;98162.75;5073350;28;20667;-64
2022/12/08 04:47:21;;;;;;;10.85;7.20;;;;;;;6.17;100.00;98137.84;5072874;28;20237;-64
2022/12/08 04:49:47;;;;;;;8.20;6.18;;;;;;;6.59;100.00;98207.41;5072843;28;20185;-62
2022/12/08 04:52:12;;;;;;;12.32;6.90;;;;;;;6.32;100.00;98166.09;5073342;28;20176;-62
2022/12/08 04:54:38;;;;;;;10.98;7.25;;;;;;;6.64;100.00;98215.69;5072756;28;20181;-62
2022/12/08 04:57:03;;;;;;;15.60;8.60;;;;;;;6.64;100.00;98210.56;5072815;28;20180;-62
2022/12/08 04:59:29;;;;;;;14.27;8.65;;;;;;;6.70;100.00;98225.63;5073255;28;20231;-61
2022/12/08 05:01:54;;;;;;;14.00;8.23;;;;;;;6.65;100.00;98207.88;5072652;28;20227;-61
2022/12/08 05:04:19;;;;;;;14.18;9.23;;;;;;;6.45;100.00;98182.47;5072615;28;20751;-62
2022/12/08 05:06:45;;;;;;;13.20;8.85;;;;;;;6.36;100.00;98154.72;5072623;28;20177;-62
2022/12/08 05:09:10;;;;;;;13.05;8.55;;;;;;;6.43;100.00;98161.19;5072914;28;20192;-62
2022/12/08 05:11:40;;;;;;;15.00;8.95;;;;;;;6.74;100.00;98212.53;5072257;28;20192;-63
2022/12/08 05:14:09;;;;;;;13.18;9.57;;;;;;;6.67;100.00;98206.06;5072456;28;20716;-62
2022/12/08 05:16:38;;;;;;;13.93;9.07;;;;;;;6.10;100.00;98101.41;5072453;28;20723;-63
2022/12/08 05:19:04;;;;;;;12.02;7.97;;;;;;;6.79;100.00;98210.53;5072439;28;20181;-62
2022/12/08 05:21:30;;;;;;;15.30;8.98;;;;;;;6.48;100.00;98177.16;5073000;28;20208;-62
2022/12/08 05:23:55;;;;;;;15.95;9.23;;;;;;;6.22;100.00;98136.69;5072829;28;20224;-62
2022/12/08 05:26:21;;;;;;;17.50;9.82;;;;;;;6.42;100.00;98186.97;5072347;28;20177;-63
2022/12/08 05:28:46;;;;;;;15.13;9.55;;;;;;;6.37;100.00;98176.94;5072338;28;20181;-62
2022/12/08 05:31:13;;;;;;;16.33;9.93;;;;;;;6.73;100.00;98244.28;5071970;28;20185;-62
2022/12/08 05:33:39;;;;;;;15.18;9.68;;;;;;;6.72;100.00;98234.09;5072301;28;20184;-62
2022/12/08 05:36:05;;;;;;;16.33;10.93;;;;;;;6.57;100.00;98199.78;5072772;28;20180;-62
2022/12/08 05:38:31;;;;;;;27.80;17.70;;;;;;;6.93;100.00;98243.19;5072159;28;20726;-62
2022/12/08 05:40:56;;;;;;;25.35;15.20;;;;;;;6.51;100.00;98182.13;5071886;28;20175;-62
2022/12/08 05:43:22;;;;;;;20.05;12.80;;;;;;;6.45;100.00;98164.50;5073247;28;20179;-62
2022/12/08 05:45:47;;;;;;;31.73;19.15;;;;;;;6.60;100.00;98209.06;5076861;28;20268;-62
2022/12/08 05:48:13;;;;;;;38.42;24.98;;;;;;;6.55;100.00;98208.50;5076027;28;20177;-62
2022/12/08 05:50:38;;;;;;;37.65;23.58;;;;;;;6.66;100.00;98224.16;5076233;28;20551;-62
2022/12/08 05:53:04;;;;;;;43.42;24.27;;;;;;;6.70;100.00;98225.63;5076140;28;20648;-62
2022/12/08 05:55:29;;;;;;;41.67;23.63;;;;;;;6.76;100.00;98226.09;5076118;28;20176;-62
2022/12/08 05:57:55;;;;;;;21.35;13.27;;;;;;;6.69;100.00;98232.50;5076054;28;20234;-63
2022/12/08 06:00:20;;;;;;;21.63;14.82;;;;;;;6.58;100.00;98222.00;5076035;28;20204;-62
2022/12/08 06:02:46;;;;;;;17.75;11.65;;;;;;;6.52;100.00;98222.34;5075659;28;20181;-62
2022/12/08 06:05:11;;;;;;;19.73;13.02;;;;;;;6.64;100.00;98236.25;5076177;28;20204;-62
2022/12/08 06:07:37;;;;;;;23.88;15.55;;;;;;;6.66;100.00;98225.00;5075911;28;20173;-62
2022/12/08 06:10:04;;;;;;;25.15;15.55;;;;;;;6.70;100.00;98223.88;5075801;28;20268;-63
2022/12/08 06:12:29;;;;;;;23.85;13.95;;;;;;;6.87;100.00;98241.75;5076428;28;20208;-62
2022/12/08 06:14:54;;;;;;;18.55;12.27;;;;;;;7.01;100.00;98272.69;5076280;28;20177;-62
2022/12/08 06:17:20;;;;;;;20.60;13.45;;;;;;;7.01;100.00;98259.00;5076221;28;20564;-62
2022/12/08 06:19:45;;;;;;;38.00;20.55;;;;;;;7.13;100.00;98277.16;5075620;28;20628;-62
2022/12/08 06:22:11;;;;;;;27.00;15.45;;;;;;;6.98;100.00;98262.56;5076410;28;20181;-62
2022/12/08 06:24:36;;;;;;;29.60;18.63;;;;;;;7.20;100.00;98296.44;5075997;28;20197;-62
2022/12/08 06:27:01;;;;;;;29.10;16.77;;;;;;;7.30;100.00;98276.16;5075486;28;20173;-62
2022/12/08 06:29:27;;;;;;;25.98;15.68;;;;;;;7.33;100.00;98279.38;5075456;28;20336;-63
2022/12/08 06:31:52;;;;;;;13.02;8.40;;;;;;;7.05;100.00;98232.19;5075453;28;20191;-63
2022/12/08 06:34:18;;;;;;;11.88;6.97;;;;;;;7.05;100.00;98248.44;5075873;28;20184;-63
2022/12/08 06:36:43;;;;;;;10.57;6.88;;;;;;;7.24;100.00;98279.09;5075303;28;20597;-63
2022/12/08 06:39:09;;;;;;;9.15;6.97;;;;;;;7.18;100.00;98275.09;5075563;28;20177;-63
2022/12/08 06:42:42;;;;;;;9.98;6.88;;;;;;;7.25;100.00;98281.59;5075234;28;20242;-63
2022/12/08 06:44:20;;;;;;;10.05;6.97;;;;;;;7.30;100.00;98283.88;5074946;28;20201;-63
2022/12/08 06:46:45;;;;;;;15.00;7.68;;;;;;;7.01;100.00;98226.41;5074862;28;20183;-63
2022/12/08 06:49:11;;;;;;;10.60;7.85;;;;;;;7.43;100.00;98272.81;5075095;28;20180;-63
2022/12/08 06:51:36;;;;;;;12.98;8.07;;;;;;;7.54;100.00;98287.63;5075396;28;20241;-63
2022/12/08 06:54:01;;;;;;;9.65;7.38;;;;;;;7.19;100.00;98232.22;5074709;28;20314;-63
2022/12/08 06:56:28;;;;;;;12.05;8.07;;;;;;;7.50;100.00;98284.38;5074685;28;20173;-63
2022/12/08 06:58:54;;;;;;;7.85;7.05;;;;;;;7.38;100.00;98292.81;5074781;28;20212;-62
2022/12/08 07:01:19;;;;;;;9.50;6.40;;;;;;;7.41;100.00;98292.63;5074801;28;20761;-63
2022/12/08 07:03:46;;;;;;;7.40;6.32;;;;;;;7.09;100.00;98244.78;5074797;28;20196;-63
2022/12/08 07:06:15;;;;;;;7.60;5.85;;;;;;;7.42;100.00;98304.63;5074802;28;20187;-63
2022/12/08 07:08:41;;;;;;;8.68;6.13;;;;;;;7.43;100.00;98303.69;5074447;28;20274;-63
2022/12/08 07:11:08;;;;;;;9.82;6.40;;;;;;;7.07;100.00;98254.34;5075142;28;20238;-63
2022/12/08 07:13:34;;;;;;;7.60;6.03;;;;;;;7.39;100.00;98293.66;5074657;28;20169;-63
2022/12/08 07:15:59;;;;;;;8.20;6.18;;;;;;;6.92;100.00;98214.03;5074883;28;20177;-63
2022/12/08 07:18:24;;;;;;;10.82;7.13;;;;;;;7.40;100.00;98296.13;5072590;28;20553;-63
2022/12/08 07:20:50;;;;;;;8.43;6.00;;;;;;;7.39;100.00;98299.63;5072460;28;20196;-63
2022/12/08 07:23:15;;;;;;;6.68;5.63;;;;;;;7.49;100.00;98311.06;5072819;28;20185;-63
2022/12/08 07:25:41;;;;;;;9.75;6.75;;;;;;;7.28;100.00;98280.59;5072625;28;20193;-63
2022/12/08 07:28:10;;;;;;;7.53;6.28;;;;;;;7.36;100.00;98299.81;5072239;28;20199;-63
2022/12/08 07:30:36;;;;;;;10.07;6.40;;;;;;;7.23;100.00;98270.53;5072549;28;20238;-63
2022/12/08 07:33:03;;;;;;;9.32;7.10;;;;;;;7.32;100.00;98288.03;5071975;28;20221;-63
2022/12/08 07:35:29;;;;;;;9.82;6.90;;;;;;;7.54;100.00;98314.19;5071915;28;20185;-63
2022/12/08 07:37:54;;;;;;;10.63;8.00;;;;;;;7.44;100.00;98282.19;5071876;28;20191;-62
2022/12/08 07:40:19;;;;;;;12.13;9.70;;;;;;;7.44;100.00;98281.34;5071850;28;20272;-62
2022/12/08 07:42:45;;;;;;;11.13;8.43;;;;;;;7.72;100.00;98323.44;5071775;28;20185;-62
2022/12/08 07:45:10;;;;;;;14.38;8.90;;;;;;;7.72;100.00;98305.41;5071873;28;20212;-62
2022/12/08 07:47:36;;;;;;;11.48;9.30;;;;;;;7.56;100.00;98278.88;5071923;28;20640;-62
2022/12/08 07:50:01;;;;;;;18.35;9.95;;;;;;;7.44;100.00;98246.13;5073338;28;20196;-62
2022/12/08 07:52:26;;;;;;;22.80;10.70;;;;;;;7.81;100.00;98322.88;5074227;28;20250;-62
2022/12/08 07:54:52;;;;;;;18.27;10.90;;;;;;;7.83;100.00;98308.16;5074338;28;20187;-62
2022/12/08 07:57:17;;;;;;;21.25;14.55;;;;;;;7.78;100.00;98293.91;5072667;28;20252;-62
2022/12/08 07:59:42;;;;;;;20.60;13.80;;;;;;;8.07;100.00;98335.06;5072236;28;20184;-61
2022/12/08 08:02:15;;;;;;;30.30;16.55;;;;;;;8.17;100.00;98345.63;5073055;28;20185;-62
2022/12/08 08:04:41;;;;;;;22.02;13.45;;;;;;;8.30;100.00;98362.88;5073575;28;20219;-62
2022/12/08 08:07:06;;;;;;;24.40;13.40;;;;;;;8.25;100.00;98357.19;5073121;28;20169;-62
2022/12/08 08:09:33;;;;;;;23.15;13.25;;;;;;;8.08;100.00;98331.56;5073520;28;20697;-62
2022/12/08 08:11:58;;;;;;;22.98;15.30;;;;;;;7.92;100.00;98305.03;5073613;28;20197;-62
2022/12/08 08:14:23;;;;;;;27.85;15.27;;;;;;;8.22;100.00;98341.06;5073507;28;20180;-62
2022/12/08 08:16:49;;;;;;;28.60;17.42;;;;;;;8.27;100.00;98347.59;5073692;28;20211;-62
2022/12/08 08:19:14;;;;;;;26.42;16.73;;;;;;;8.11;100.00;98305.59;5073682;28;20181;-62
2022/12/08 08:21:40;;;;;;;36.53;17.02;;;;;;;8.43;100.00;98352.63;5073637;28;20169;-62
2022/12/08 08:24:05;;;;;;;40.08;20.60;;;;;;;8.50;100.00;98353.94;5073705;28;20262;-62
2022/12/08 08:26:31;;;;;;;40.67;19.90;;;;;;;8.48;100.00;98341.16;5073387;28;20179;-62
2022/12/08 08:28:56;;;;;;;33.13;19.08;;;;;;;8.54;100.00;98352.81;5073184;28;20173;-62
2022/12/08 08:31:25;;;;;;;36.63;22.40;;;;;;;8.28;100.00;98308.00;5072864;28;20260;-62
2022/12/08 08:33:51;;;;;;;52.03;31.27;;;;;;;8.67;100.00;98357.13;5073097;28;20185;-62
2022/12/08 08:36:16;;;;;;;85.03;44.92;;;;;;;8.50;100.00;98333.31;5072690;28;20176;-62
2022/12/08 08:38:43;;;;;;;84.78;45.45;;;;;;;8.36;100.00;98323.00;5073049;28;20287;-62
2022/12/08 08:41:11;;;;;;;58.75;33.38;;;;;;;8.43;100.00;98307.06;5073418;28;20252;-62
2022/12/08 08:43:39;;;;;;;59.15;30.98;;;;;;;8.20;100.00;98274.16;5072671;28;20702;-62
2022/12/08 08:46:05;;;;;;;52.97;28.63;;;;;;;8.78;100.00;98348.72;5071123;28;20192;-62
2022/12/08 08:48:31;;;;;;;65.10;31.20;;;;;;;8.61;100.00;98307.66;5073029;28;20174;-62
2022/12/08 08:50:57;;;;;;;58.83;29.73;;;;;;;8.98;100.00;98356.88;5072490;28;20177;-62
2022/12/08 08:53:23;;;;;;;51.80;28.45;;;;;;;9.06;100.00;98361.56;5072772;28;20177;-62
2022/12/08 08:55:50;;;;;;;50.35;27.60;;;;;;;8.82;100.00;98299.44;5072765;28;20187;-62
2022/12/08 08:58:15;;;;;;;52.00;27.40;;;;;;;8.80;100.00;98296.13;5072674;28;20196;-62
2022/12/08 09:00:41;;;;;;;47.83;25.90;;;;;;;8.55;100.00;98254.75;5072946;28;20193;-63
2022/12/08 09:03:06;;;;;;;51.03;26.05;;;;;;;9.07;100.00;98325.34;5072675;28;20181;-62
2022/12/08 09:05:32;;;;;;;56.83;26.63;;;;;;;8.84;100.00;98282.09;5073073;28;20527;-62
2022/12/08 09:07:57;;;;;;;50.78;24.70;;;;;;;9.13;100.00;98330.09;5072758;28;20177;-62
2022/12/08 09:10:23;;;;;;;51.92;26.42;;;;;;;8.85;100.00;98275.22;5073258;28;20183;-62
2022/12/08 09:12:48;;;;;;;46.70;25.50;;;;;;;8.90;100.00;98271.41;5072861;28;20199;-62
2022/12/08 09:15:14;;;;;;;48.67;25.77;;;;;;;9.24;100.00;98317.34;5072808;28;20177;-62
2022/12/08 09:17:39;;;;;;;46.20;24.33;;;;;;;9.42;100.00;98310.97;5071641;28;20177;-62
2022/12/08 09:20:05;;;;;;;43.58;24.90;;;;;;;9.33;100.00;98301.25;5072384;28;20289;-62
2022/12/08 09:22:31;;;;;;;50.38;24.55;;;;;;;9.18;100.00;98273.84;5072913;28;20201;-62
2022/12/08 09:24:56;;;;;;;48.30;24.83;;;;;;;9.48;100.00;98314.91;5072347;28;20239;-62
2022/12/08 09:27:22;;;;;;;47.90;24.67;;;;;;;9.51;100.00;98323.31;5072063;28;20185;-62
2022/12/08 09:29:47;;;;;;;47.13;23.83;;;;;;;9.19;100.00;98262.59;5072900;28;20173;-62
2022/12/08 09:32:13;;;;;;;47.97;24.60;;;;;;;9.49;100.00;98312.22;5072319;28;20266;-62
2022/12/08 09:34:38;;;;;;;52.28;26.05;;;;;;;9.15;100.00;98250.00;5072278;28;20214;-62
2022/12/08 09:37:04;;;;;;;44.55;25.90;;;;;;;9.13;100.00;98255.25;5072263;28;20185;-62
2022/12/08 09:39:29;;;;;;;43.85;25.60;;;;;;;9.19;100.00;98252.28;5072333;28;20177;-62
2022/12/08 09:42:01;;;;;;;52.45;25.35;;;;;;;9.50;100.00;98298.38;5072232;28;20275;-62
2022/12/08 09:44:35;;;;;;;49.25;25.10;;;;;;;9.49;100.00;98307.06;5072770;28;20197;-61
2022/12/08 09:47:04;;;;;;;45.28;26.58;;;;;;;9.45;100.00;98302.22;5073045;28;20184;-61
2022/12/08 09:49:45;;;;;;;53.45;25.58;;;;;;;8.79;100.00;98204.19;5072643;28;20173;-61
2022/12/08 09:52:25;;;;;;;51.53;25.38;;;;;;;8.80;100.00;98208.41;5072150;28;20619;-61
2022/12/08 09:54:50;;;;;;;45.20;24.15;;;;;;;9.38;100.00;98278.53;5071979;28;20632;-60
2022/12/08 09:57:20;;;;;;;41.28;23.83;;;;;;;9.17;100.00;98236.06;5071800;28;20188;-60
2022/12/08 09:59:52;;;;;;;50.50;25.60;;;;;;;9.28;100.00;98246.53;5072569;28;20173;-61
2022/12/08 10:02:27;;;;;;;45.92;25.42;;;;;;;9.57;100.00;98283.31;5072097;28;20554;-61
2022/12/08 10:04:56;;;;;;;50.80;26.02;;;;;;;9.63;100.00;98282.91;5071959;28;20224;-61
2022/12/08 10:07:45;;;;;;;46.92;26.05;;;;;;;9.32;100.00;98242.78;5072482;28;20177;-60
2022/12/08 10:10:26;;;;;;;47.10;26.38;;;;;;;9.64;100.00;98287.97;5071873;28;20161;-60
2022/12/08 10:13:26;;;;;;;47.40;26.42;;;;;;;9.64;100.00;98280.22;5072302;28;20200;-61
2022/12/08 10:16:03;;;;;;;49.40;25.90;;;;;;;9.57;100.00;98278.16;5071660;28;20204;-61
2022/12/08 10:18:32;;;;;;;55.60;31.90;;;;;;;9.22;100.00;98221.13;5072403;28;20181;-62
2022/12/08 10:21:11;;;;;;;58.60;29.90;;;;;;;8.79;100.00;98175.81;5072078;28;20177;-61
2022/12/08 10:23:38;;;;;;;56.78;29.23;;;;;;;9.06;100.00;98204.97;5071753;28;20674;-61
2022/12/08 10:26:05;;;;;;;56.25;30.58;;;;;;;9.48;100.00;98261.50;5072066;28;20185;-61
2022/12/08 10:28:32;;;;;;;64.53;33.30;;;;;;;9.53;100.00;98254.28;5071654;28;20189;-62
2022/12/08 10:30:58;;;;;;;56.47;29.83;;;;;;;9.31;100.00;98204.19;5075630;28;20681;-61
2022/12/08 10:33:23;;;;;;;96.00;39.42;;;;;;;9.63;100.00;98252.75;5074068;28;20212;-61
2022/12/08 10:35:52;;;;;;;55.47;28.67;;;;;;;9.50;100.00;98245.91;5075272;28;20179;-61
2022/12/08 10:38:24;;;;;;;51.47;27.77;;;;;;;9.25;100.00;98192.50;5075060;28;20618;-61
2022/12/08 10:40:53;;;;;;;51.13;26.92;;;;;;;9.27;100.00;98205.31;5074655;28;20532;-61
2022/12/08 10:43:25;;;;;;;54.60;27.15;;;;;;;9.44;100.00;98233.41;5075751;28;20177;-61
2022/12/08 10:45:51;;;;;;;70.97;32.72;;;;;;;9.41;100.00;98216.38;5075222;28;20213;-61
2022/12/08 10:48:21;;;;;;;81.63;35.42;;;;;;;9.39;100.00;98207.88;5075177;28;20208;-60
2022/12/08 10:50:57;;;;;;;73.53;33.15;;;;;;;9.61;100.00;98246.84;5074622;28;20569;-59
2022/12/08 10:53:24;;;;;;;56.35;30.67;;;;;;;9.51;100.00;98238.09;5075104;28;20191;-59
2022/12/08 10:56:01;;;;;;;72.35;32.50;;;;;;;9.51;100.00;98242.41;5075040;28;20208;-59
2022/12/08 10:58:41;;;;;;;56.08;27.95;;;;;;;9.16;100.00;98195.72;5075415;28;20612;-59
2022/12/08 11:01:31;;;;;;;47.97;27.38;;;;;;;9.36;100.00;98233.91;5075269;28;20631;-60
2022/12/08 11:03:59;;;;;;;46.20;26.13;;;;;;;9.15;100.00;98204.34;5074650;28;20610;-60
2022/12/08 11:06:28;;;;;;;52.53;28.40;;;;;;;9.37;100.00;98233.00;5074831;28;20191;-60
2022/12/08 11:09:15;;;;;;;54.33;27.90;;;;;;;9.50;100.00;98228.66;5075294;28;20188;-60
2022/12/08 11:11:51;;;;;;;44.50;25.83;;;;;;;9.47;100.00;98235.78;5032419;28;20296;-60
2022/12/08 11:14:34;;;;;;;77.90;34.30;;;;;;;9.53;100.00;98242.19;5033208;28;20601;-60
2022/12/08 11:17:10;;;;;;;53.80;29.27;;;;;;;9.34;100.00;98194.47;5032952;28;20194;-60
2022/12/08 11:20:05;;;;;;;52.03;26.10;;;;;;;9.19;100.00;98169.69;5032952;28;20171;-60
2022/12/08 11:22:44;;;;;;;51.50;26.08;;;;;;;9.75;100.00;98223.50;4992820;28;20231;-60
2022/12/08 11:25:19;;;;;;;49.00;27.60;;;;;;;9.54;100.00;98173.28;4993299;28;20206;-60
2022/12/08 11:27:48;;;;;;;46.33;25.58;;;;;;;9.62;100.00;98167.59;4993201;28;20199;-60
2022/12/08 11:30:22;;;;;;;57.58;28.83;;;;;;;9.58;100.00;98157.47;4992876;28;20188;-60
2022/12/08 11:32:52;;;;;;;66.25;34.28;;;;;;;9.92;100.00;98205.91;4993542;28;20213;-60
2022/12/08 11:35:21;;;;;;;54.40;31.45;;;;;;;9.84;100.00;98204.78;4990840;28;20242;-60